TimeEST,TemperatureF,Dew PointF,Humidity,Sea Level PressureIn,VisibilityMPH,Wind Direction,Wind SpeedMPH,Gust SpeedMPH,PrecipitationIn,Events,Conditions,WindDirDegrees,DateUTC
12:53 AM,19.9,16.0,85,29.76,9.0,NNW,3.5,-,N/A,,Overcast,340,2014-02-15 05:53:00
1:53 AM,21.9,17.1,82,29.75,10.0,NNW,3.5,-,N/A,,Overcast,330,2014-02-15 06:53:00
2:53 AM,19.9,16.0,85,29.75,9.0,Calm,Calm,-,N/A,,Overcast,0,2014-02-15 07:53:00
3:53 AM,21.9,17.1,82,29.74,3.0,Calm,Calm,-,0.00,Snow,Light Snow,0,2014-02-15 08:53:00
3:58 AM,21.9,18.0,85,29.66,1.8,Calm,Calm,-,0.00,Snow,Light Snow,0,2014-02-15 08:58:00
4:53 AM,24.1,21.0,88,29.70,1.5,North,5.8,-,0.01,Snow,Light Snow,360,2014-02-15 09:53:00
5:03 AM,25.0,21.0,85,29.63,2.5,North,4.6,-,0.00,Snow,Light Snow,360,2014-02-15 10:03:00
5:15 AM,25.0,21.0,85,29.64,4.0,ESE,6.9,-,0.00,Snow,Light Snow,120,2014-02-15 10:15:00
5:24 AM,25.0,21.0,85,29.64,5.0,SE,6.9,-,0.00,,Overcast,130,2014-02-15 10:24:00
5:53 AM,24.1,21.9,91,29.72,4.0,East,5.8,-,0.00,Snow,Light Snow,100,2014-02-15 10:53:00
5:59 AM,24.1,21.9,91,29.65,1.8,East,6.9,-,0.00,Snow,Light Snow,90,2014-02-15 10:59:00
6:21 AM,24.1,21.9,91,29.64,1.8,East,6.9,-,0.01,Snow,Light Snow,100,2014-02-15 11:21:00
6:25 AM,24.1,21.9,91,29.64,3.0,East,6.9,-,0.01,Snow,Light Snow,90,2014-02-15 11:25:00
6:35 AM,24.1,21.9,91,29.65,2.5,East,6.9,-,0.01,,Overcast,100,2014-02-15 11:35:00
6:50 AM,24.8,21.2,86,29.65,1.8,East,6.9,-,0.01,Snow,Light Snow,100,2014-02-15 11:50:00
6:53 AM,24.1,21.9,91,29.72,1.8,East,8.1,-,0.01,Snow,Light Snow,100,2014-02-15 11:53:00
7:05 AM,24.1,21.9,91,29.65,1.2,East,6.9,-,0.00,Snow,Light Snow,90,2014-02-15 12:05:00
7:34 AM,25.0,21.9,88,29.65,2.5,East,5.8,-,0.00,,Overcast,100,2014-02-15 12:34:00
7:41 AM,25.0,21.9,88,29.65,3.0,East,8.1,-,0.00,,Overcast,90,2014-02-15 12:41:00
7:48 AM,24.8,21.2,86,29.65,1.8,East,6.9,-,0.00,Snow,Light Snow,90,2014-02-15 12:48:00
7:53 AM,25.0,21.9,88,29.72,1.2,East,8.1,-,0.00,Snow,Light Snow,90,2014-02-15 12:53:00
8:13 AM,26.1,23.0,88,29.65,1.0,East,9.2,-,0.00,Snow,Light Snow,90,2014-02-15 13:13:00
8:20 AM,26.1,23.0,88,29.64,0.8,East,8.1,-,0.00,Snow,Light Snow,80,2014-02-15 13:20:00
8:53 AM,26.1,23.0,88,29.72,0.5,East,9.2,-,0.00,Fog-Snow,Light Snow,90,2014-02-15 13:53:00
9:13 AM,26.1,23.0,88,29.64,0.5,East,10.4,-,0.01,Fog-Snow,Light Snow,80,2014-02-15 14:13:00
9:27 AM,26.1,23.0,88,29.64,0.5,East,8.1,-,0.01,Fog-Snow,Light Snow,80,2014-02-15 14:27:00
9:53 AM,26.1,23.0,88,29.71,0.5,East,10.4,-,0.02,Fog-Snow,Light Snow,100,2014-02-15 14:53:00
9:56 AM,26.1,23.0,88,29.64,0.2,East,10.4,-,0.00,Fog-Snow,Light Snow,100,2014-02-15 14:56:00
10:20 AM,26.1,23.0,88,29.64,0.2,East,11.5,-,0.01,Fog-Snow,Snow,80,2014-02-15 15:20:00
10:53 AM,26.1,23.0,88,29.72,0.2,ENE,9.2,-,0.03,Fog-Snow,Snow,60,2014-02-15 15:53:00
11:53 AM,27.0,23.0,85,29.71,0.2,NNE,6.9,-,0.05,Fog-Snow,Snow,30,2014-02-15 16:53:00
12:28 PM,28.0,23.0,81,29.61,0.5,North,10.4,-,0.02,Snow,Snow,10,2014-02-15 17:28:00
12:35 PM,27.0,23.0,85,29.60,0.2,North,12.7,-,0.03,Fog-Snow,Snow,360,2014-02-15 17:35:00
12:53 PM,27.0,23.0,85,29.67,0.5,North,10.4,-,0.03,Fog-Snow,Snow,360,2014-02-15 17:53:00
1:12 PM,27.0,23.0,85,29.59,0.2,North,10.4,-,0.01,Fog-Snow,Heavy Snow,350,2014-02-15 18:12:00
1:48 PM,26.6,21.2,80,29.58,0.5,North,11.5,20.7,0.02,Snow,Snow,350,2014-02-15 18:48:00
1:53 PM,27.0,23.0,85,29.65,0.5,NNW,11.5,20.7,0.02,Fog-Snow,Light Snow,340,2014-02-15 18:53:00
2:01 PM,27.0,23.0,85,29.58,1.0,NNW,10.4,-,0.00,Snow,Light Snow,340,2014-02-15 19:01:00
2:24 PM,28.0,23.0,81,29.57,0.5,NNW,9.2,19.6,0.01,Snow,Snow,340,2014-02-15 19:24:00
2:30 PM,28.0,24.1,85,29.57,0.2,NNW,9.2,-,0.01,Fog-Snow,Snow,340,2014-02-15 19:30:00
2:50 PM,28.4,24.8,86,29.57,0.5,NNW,11.5,-,0.01,Fog-Snow,Snow,340,2014-02-15 19:50:00
2:53 PM,28.0,24.1,85,29.65,0.5,NNW,10.4,-,0.01,Fog-Snow,Snow,340,2014-02-15 19:53:00
3:12 PM,28.0,24.1,85,29.58,0.8,NNW,16.1,20.7,0.00,Snow,Light Snow,330,2014-02-15 20:12:00
3:17 PM,28.0,23.0,81,29.59,1.0,NNW,11.5,20.7,0.00,Snow,Light Snow,330,2014-02-15 20:17:00
3:24 PM,28.0,23.0,81,29.59,1.2,NW,13.8,20.7,0.00,Snow,Light Snow,320,2014-02-15 20:24:00
3:32 PM,28.0,23.0,81,29.58,1.5,NNW,15.0,20.7,0.01,Snow,Light Snow,330,2014-02-15 20:32:00
3:45 PM,28.0,23.0,81,29.58,2.5,NNW,13.8,23.0,0.01,Snow,Light Snow,330,2014-02-15 20:45:00
3:53 PM,28.0,23.0,81,29.66,2.5,NNW,16.1,24.2,0.01,Snow,Light Snow,340,2014-02-15 20:53:00
4:01 PM,28.0,21.9,78,29.59,3.0,NNW,16.1,23.0,0.00,Snow,Light Snow,330,2014-02-15 21:01:00
4:10 PM,27.0,21.9,81,29.59,2.0,NNW,15.0,27.6,0.00,Snow,Light Snow,340,2014-02-15 21:10:00
4:19 PM,27.0,21.9,81,29.59,1.5,NNW,15.0,27.6,0.00,Snow,Light Snow,330,2014-02-15 21:19:00
4:53 PM,27.0,21.9,81,29.66,1.0,NNW,17.3,28.8,0.00,Snow,Light Snow,330,2014-02-15 21:53:00
5:09 PM,26.1,21.0,81,29.59,0.8,NNW,15.0,31.1,0.00,Snow,Light Snow,330,2014-02-15 22:09:00
5:26 PM,26.1,21.0,81,29.60,1.0,NNW,15.0,29.9,0.00,Snow,Light Snow,330,2014-02-15 22:26:00
5:30 PM,25.0,21.0,85,29.60,1.2,NNW,20.7,29.9,0.00,Snow,Light Snow,330,2014-02-15 22:30:00
5:41 PM,25.0,19.9,81,29.61,2.0,NW,15.0,29.9,0.00,,Overcast,320,2014-02-15 22:41:00
5:50 PM,24.8,19.4,80,29.61,4.0,NW,21.9,29.9,0.00,,Overcast,320,2014-02-15 22:50:00
5:53 PM,25.0,19.9,81,29.69,4.0,NNW,17.3,29.9,0.00,,Overcast,330,2014-02-15 22:53:00
6:08 PM,25.0,19.0,78,29.62,2.5,NW,18.4,32.2,0.00,Snow,Light Snow,320,2014-02-15 23:08:00
6:17 PM,25.0,19.0,78,29.62,4.0,NNW,17.3,29.9,0.00,,Overcast,330,2014-02-15 23:17:00
6:53 PM,24.1,16.0,71,29.70,4.0,NNW,21.9,39.1,0.00,,Overcast,330,2014-02-15 23:53:00
7:19 PM,23.0,17.1,78,29.63,1.8,NNW,23.0,32.2,0.00,Snow,Light Snow,330,2014-02-16 00:19:00
7:49 PM,21.2,14.0,74,29.64,3.0,NW,20.7,33.4,0.00,Snow,Light Snow,320,2014-02-16 00:49:00
7:50 PM,21.9,14.0,72,29.71,3.0,NW,20.7,33.4,0.00,Snow,Light Snow,320,2014-02-16 00:50:00
8:06 PM,21.0,12.9,71,29.63,2.5,NNW,23.0,36.8,0.00,Snow,Light Snow,330,2014-02-16 01:06:00
8:13 PM,19.9,12.9,74,29.63,3.0,NW,24.2,40.3,0.00,Snow,Light Snow,320,2014-02-16 01:13:00
8:22 PM,19.9,12.0,71,29.62,2.5,NNW,28.8,38.0,0.00,,Partly Cloudy,330,2014-02-16 01:22:00
8:34 PM,19.0,12.0,74,29.62,2.5,NW,21.9,34.5,0.00,Snow,Light Snow,320,2014-02-16 01:34:00
8:42 PM,19.0,10.9,71,29.62,3.0,NNW,24.2,36.8,0.00,,Scattered Clouds,330,2014-02-16 01:42:00
8:53 PM,19.0,10.9,71,29.71,3.0,NNW,23.0,36.8,0.00,,Mostly Cloudy,330,2014-02-16 01:53:00
9:33 PM,18.0,9.0,68,29.65,6.0,NW,19.6,34.5,0.00,,Scattered Clouds,320,2014-02-16 02:33:00
9:53 PM,18.0,9.0,68,29.74,3.0,NW,27.6,39.1,0.00,,Partly Cloudy,310,2014-02-16 02:53:00
10:01 PM,18.0,9.0,68,29.66,2.5,NW,25.3,38.0,0.00,Snow,Light Snow,310,2014-02-16 03:01:00
10:10 PM,18.0,9.0,68,29.67,4.0,NW,24.2,38.0,0.00,,Mostly Cloudy,320,2014-02-16 03:10:00
10:51 PM,17.6,10.4,73,29.68,2.0,NW,21.9,38.0,0.00,Snow,Light Snow,320,2014-02-16 03:51:00
10:53 PM,17.1,10.0,74,29.76,2.0,NW,23.0,33.4,0.00,Snow,Light Snow,320,2014-02-16 03:53:00
11:01 PM,17.1,9.0,71,29.68,1.8,NW,20.7,40.3,0.00,Snow,Light Snow,320,2014-02-16 04:01:00
11:07 PM,17.1,9.0,71,29.68,3.0,NW,26.5,33.4,0.00,Snow,Light Snow,320,2014-02-16 04:07:00
11:39 PM,16.0,8.1,71,29.68,2.0,NW,24.2,36.8,0.00,Snow,Light Snow,310,2014-02-16 04:39:00
11:53 PM,16.0,9.0,74,29.77,2.0,NW,24.2,36.8,0.00,Snow,Light Snow,320,2014-02-16 04:53:00